Walnut Hill, Florida
Current Conditions -  °F | °C
As of 8:56 AM on Thursday 23 Oct 2014 (Local Time) from KNSE Reporting Station
Few Clouds Few Clouds  
Wind Chill: 55°   Ceiling: Unl
Heat Index: 55°   Visibility: 10mi
Dew Point: 45°   Wind: 7mph
Humidity: 69%   Direction: 70°ENE
Pressure: 30.11"   Gusts: NA
Location:  30.8697°N, 87.4663°W
Report Text: KNSE 231356Z 07006KT 10SM FEW250 13/07 A3011 RMK AO2 SLP183 T01280072 $
Loading
Personal Weather Stations






























Interactive Weather Map
Tropical Storm Tracking
New forecast layout! Learn more

10-Day Weather Forecast

Advertisements
Track Severe Weather on mobile